Terminal Aerodrome Forecast
Issued by NWS Huntsville, AL

Home | Current Version | Previous Version | Text Only | Print | Product List | Glossary On
Versions: 1 2 3 4 5 6 7 8 9 10 11 12 13 14 15 16 17 18 19 20 21 22 23 24 25 26 27 28
000
FTUS44 KHUN 181135
TAFMSL
TAF
KMSL 181135Z 1812/1912 18010KT P6SM OVC019
     FM181600 19012G20KT P6SM SCT025 OVC060
     FM182300 16015G25KT 3SM -SHRA BR VCTS OVC050CB
      TEMPO 1823/1902 4SM -TSRA BR OVC025CB
     FM190200 19020G30KT 3SM -TSRA BR OVC015CB
     FM190600 25015G25KT 4SM -DZ OVC015=

USA.gov is the U.S. government's official web portal to all federal, state and local government web resources and services.